createdAt,value
2019-05-09T00:02:13.214Z,9.33
2019-05-09T00:04:46.486Z,9.28
2019-05-09T00:07:19.882Z,9.19
2019-05-09T00:09:53.461Z,9.16
2019-05-09T00:12:26.864Z,9.14
2019-05-09T00:15:00.331Z,9.15
2019-05-09T00:17:33.967Z,9.28
2019-05-09T00:20:15.259Z,9.31
2019-05-09T00:22:48.671Z,9.31
2019-05-09T00:25:23.611Z,9.31
2019-05-09T00:27:57.082Z,9.31
2019-05-09T00:30:48.674Z,9.31
2019-05-09T00:33:23.699Z,9.22
2019-05-09T00:35:58.073Z,9.17
2019-05-09T00:38:38.614Z,9.21
2019-05-09T00:41:13.945Z,9.23
2019-05-09T00:43:51.449Z,9.24
2019-05-09T00:46:28.937Z,9.21
2019-05-09T00:49:05.120Z,9.20
2019-05-09T00:51:38.639Z,9.22
2019-05-09T00:54:13.523Z,9.24
2019-05-09T00:56:46.988Z,9.24
2019-05-09T00:59:20.367Z,9.26
2019-05-09T01:01:54.456Z,9.34
2019-05-09T01:04:27.863Z,9.36
2019-05-09T01:07:03.256Z,9.34
2019-05-09T01:09:36.406Z,9.30
2019-05-09T01:12:09.818Z,9.24
2019-05-09T01:14:43.364Z,9.22
2019-05-09T01:17:16.797Z,9.20
2019-05-09T01:19:50.331Z,9.17
2019-05-09T01:22:23.734Z,9.15
2019-05-09T01:24:57.128Z,9.13
2019-05-09T01:27:30.614Z,9.14
2019-05-09T01:30:05.149Z,9.13
2019-05-09T01:32:45.754Z,9.14
2019-05-09T01:35:19.147Z,9.09
2019-05-09T01:37:53.899Z,9.04
2019-05-09T01:40:27.367Z,9.02
2019-05-09T01:43:00.762Z,9.01
2019-05-09T01:45:34.385Z,9.02
2019-05-09T01:48:07.826Z,9.07
2019-05-09T01:50:43.124Z,9.04
2019-05-09T01:53:17.986Z,9.00
2019-05-09T01:56:00.695Z,9.00
2019-05-09T01:58:34.880Z,8.98
2019-05-09T02:01:09.710Z,8.95
2019-05-09T02:03:44.270Z,8.93
2019-05-09T02:06:18.262Z,8.91
2019-05-09T02:08:54.263Z,8.83
2019-05-09T02:11:39.462Z,8.79
2019-05-09T02:14:04.011Z,8.70
2019-05-09T02:16:55.076Z,8.63
2019-05-09T02:19:45.149Z,8.56
2019-05-09T02:22:34.443Z,8.55
2019-05-09T02:25:09.467Z,8.49
2019-05-09T02:27:43.642Z,8.42
2019-05-09T02:30:17.764Z,8.36
2019-05-09T02:32:54.485Z,8.32
2019-05-09T02:35:29.316Z,8.27
2019-05-09T02:38:01.498Z,8.24
2019-05-09T02:40:34.893Z,8.27
2019-05-09T02:43:09.914Z,8.28
2019-05-09T02:45:52.686Z,8.26
2019-05-09T02:48:23.056Z,8.19
2019-05-09T02:50:59.841Z,8.13
2019-05-09T02:53:31.665Z,8.08
2019-05-09T02:56:05.107Z,8.10
2019-05-09T02:58:48.754Z,8.10
2019-05-09T03:01:23.800Z,8.12
2019-05-09T03:03:58.880Z,8.11
2019-05-09T03:06:32.967Z,8.12
2019-05-09T03:09:08.923Z,8.09
2019-05-09T03:11:42.751Z,8.01
2019-05-09T03:14:19.199Z,8.05
2019-05-09T03:16:51.277Z,8.06
2019-05-09T03:19:24.675Z,8.12
2019-05-09T03:22:02.594Z,8.14
2019-05-09T03:24:39.161Z,8.19
2019-05-09T03:27:12.794Z,8.25
2019-05-09T03:29:48.848Z,8.23
2019-05-09T03:32:22.521Z,8.27
2019-05-09T03:34:57.962Z,8.29
2019-05-09T03:37:31.061Z,8.35
2019-05-09T03:40:05.012Z,8.37
2019-05-09T03:42:43.602Z,8.43
2019-05-09T03:45:15.415Z,8.49
2019-05-09T03:47:50.473Z,8.53
2019-05-09T03:50:23.873Z,8.58
2019-05-09T03:52:57.957Z,8.60
2019-05-09T03:55:32.983Z,8.58
2019-05-09T03:58:10.988Z,8.56
2019-05-09T04:00:44.367Z,8.59
2019-05-09T04:03:19.836Z,8.59
2019-05-09T04:05:59.119Z,8.55
2019-05-09T04:08:28.332Z,8.56
2019-05-09T04:11:01.783Z,8.58
2019-05-09T04:13:38.528Z,8.57
2019-05-09T04:16:12.021Z,8.58
2019-05-09T04:18:47.894Z,8.58
2019-05-09T04:21:20.528Z,8.56
2019-05-09T04:23:53.935Z,8.60
2019-05-09T04:26:45.356Z,8.62
2019-05-09T04:29:18.784Z,8.64
2019-05-09T04:31:52.165Z,8.64
2019-05-09T04:34:27.551Z,8.58
2019-05-09T04:37:00.699Z,8.65
2019-05-09T04:39:34.201Z,8.68
2019-05-09T04:42:08.368Z,8.68
2019-05-09T04:44:43.518Z,8.67
2019-05-09T04:47:17.397Z,8.68
2019-05-09T04:49:50.919Z,8.64
2019-05-09T04:52:24.327Z,8.57
2019-05-09T04:54:57.769Z,8.57
2019-05-09T04:57:31.127Z,8.55
2019-05-09T05:00:10.045Z,8.55
2019-05-09T05:02:48.478Z,8.58
2019-05-09T05:05:21.951Z,8.63
2019-05-09T05:07:57.311Z,8.70
2019-05-09T05:10:30.449Z,8.85
2019-05-09T05:13:03.833Z,8.86
2019-05-09T05:15:37.801Z,8.97
2019-05-09T05:18:11.207Z,9.03
2019-05-09T05:20:44.642Z,9.15
2019-05-09T05:23:19.686Z,9.17
2019-05-09T05:25:53.116Z,9.23
2019-05-09T05:28:27.823Z,9.25
2019-05-09T05:31:01.333Z,9.24
2019-05-09T05:33:39.274Z,9.15
2019-05-09T05:36:14.399Z,9.06
2019-05-09T05:38:48.057Z,9.10
2019-05-09T05:41:21.571Z,9.16
2019-05-09T05:43:54.939Z,9.21
2019-05-09T05:46:50.429Z,9.31
2019-05-09T05:49:21.405Z,9.38
2019-05-09T05:51:54.809Z,9.43
2019-05-09T05:54:28.190Z,9.37
2019-05-09T05:57:01.597Z,9.46
2019-05-09T05:59:38.207Z,9.52
2019-05-09T06:02:10.181Z,9.58
2019-05-09T06:04:43.591Z,9.70
2019-05-09T06:07:18.497Z,9.88
2019-05-09T06:09:51.967Z,10.04
2019-05-09T06:12:27.483Z,10.33
2019-05-09T06:15:00.507Z,10.24
2019-05-09T06:17:33.908Z,9.98
2019-05-09T06:20:08.990Z,9.73
2019-05-09T06:22:42.594Z,9.80
2019-05-09T06:25:20.094Z,9.94
2019-05-09T06:27:51.195Z,9.98
2019-05-09T06:30:29.200Z,9.94
2019-05-09T06:33:04.892Z,9.87
2019-05-09T06:35:38.048Z,9.81
2019-05-09T06:38:11.483Z,9.77
2019-05-09T06:40:44.905Z,9.76
2019-05-09T06:43:19.780Z,9.68
2019-05-09T06:46:10.797Z,9.73
2019-05-09T06:48:44.209Z,9.64
2019-05-09T06:51:21.002Z,9.58
2019-05-09T06:53:52.741Z,9.55
2019-05-09T06:56:28.316Z,9.46
2019-05-09T06:59:01.259Z,9.32
2019-05-09T07:01:41.982Z,9.30
2019-05-09T07:04:19.820Z,9.31
2019-05-09T07:06:54.846Z,9.22
2019-05-09T07:09:32.321Z,9.23
2019-05-09T07:12:07.880Z,9.17
2019-05-09T07:14:41.890Z,9.22
2019-05-09T07:17:15.500Z,9.32
2019-05-09T07:19:49.203Z,9.36
2019-05-09T07:22:30.035Z,9.48
2019-05-09T07:25:10.210Z,9.57
2019-05-09T07:27:44.318Z,9.65
2019-05-09T07:30:29.231Z,9.49
2019-05-09T07:33:04.296Z,9.49
2019-05-09T07:35:38.314Z,9.54
2019-05-09T07:38:11.883Z,9.60
2019-05-09T07:40:47.767Z,9.56
2019-05-09T07:43:21.275Z,9.58
2019-05-09T07:46:12.418Z,9.64
2019-05-09T07:48:48.374Z,9.77
2019-05-09T07:51:22.036Z,9.76
2019-05-09T07:53:55.460Z,9.73
2019-05-09T07:56:28.863Z,9.70
2019-05-09T07:59:02.297Z,9.79
2019-05-09T08:01:38.258Z,9.80
2019-05-09T08:04:10.888Z,9.88
2019-05-09T08:06:44.390Z,10.03
2019-05-09T08:09:18.678Z,10.18
2019-05-09T08:11:52.286Z,10.15
2019-05-09T08:14:27.955Z,10.37
2019-05-09T08:17:00.932Z,10.37
2019-05-09T08:19:34.359Z,10.25
2019-05-09T08:22:08.109Z,10.29
2019-05-09T08:24:41.544Z,10.57
2019-05-09T08:27:17.346Z,10.64
2019-05-09T08:29:50.159Z,10.64
2019-05-09T08:32:23.550Z,10.65
2019-05-09T08:34:57.620Z,10.88
2019-05-09T08:37:31.117Z,10.86
2019-05-09T08:40:08.001Z,10.85
2019-05-09T08:42:41.020Z,10.74
2019-05-09T08:45:26.868Z,10.96
2019-05-09T08:47:49.629Z,11.09
2019-05-09T08:50:24.814Z,11.28
2019-05-09T08:52:58.235Z,11.45
2019-05-09T08:55:31.629Z,11.83
2019-05-09T08:58:05.045Z,12.30
2019-05-09T09:00:39.212Z,12.27
2019-05-09T09:03:12.694Z,12.29
2019-05-09T09:05:48.352Z,11.88
2019-05-09T09:08:21.242Z,11.91
2019-05-09T09:10:54.657Z,11.77
2019-05-09T09:13:28.417Z,11.63
2019-05-09T09:16:14.507Z,11.49
2019-05-09T09:18:38.784Z,11.29
2019-05-09T09:21:12.417Z,11.18
2019-05-09T09:23:49.661Z,11.21
2019-05-09T09:26:20.986Z,11.19
2019-05-09T09:28:54.407Z,11.14
2019-05-09T09:31:28.519Z,11.17
2019-05-09T09:34:01.965Z,11.12
2019-05-09T09:36:35.377Z,11.01
2019-05-09T09:39:08.834Z,11.01
2019-05-09T09:41:42.268Z,11.06
2019-05-09T09:44:17.895Z,11.18
2019-05-09T09:46:50.877Z,11.33
2019-05-09T09:49:24.255Z,11.46
2019-05-09T09:51:58.246Z,11.77
2019-05-09T09:54:31.745Z,12.24
2019-05-09T09:57:05.177Z,12.54
2019-05-09T09:59:42.945Z,12.70
2019-05-09T10:02:18.030Z,12.81
2019-05-09T10:04:51.496Z,12.85
2019-05-09T10:07:24.896Z,12.68
2019-05-09T10:09:58.542Z,12.63
2019-05-09T10:12:32.620Z,12.53
2019-05-09T10:15:14.276Z,12.72
2019-05-09T10:17:49.346Z,12.87
2019-05-09T10:20:30.407Z,12.57
2019-05-09T10:23:11.744Z,12.51
2019-05-09T10:25:39.157Z,12.40
2019-05-09T10:28:12.567Z,12.32
2019-05-09T10:30:48.372Z,12.20
2019-05-09T10:33:21.103Z,12.27
2019-05-09T10:35:54.537Z,12.34
2019-05-09T10:38:28.152Z,12.22
2019-05-09T10:41:02.134Z,12.21
2019-05-09T10:43:43.383Z,12.20
2019-05-09T10:46:19.477Z,12.20
2019-05-09T10:48:54.759Z,12.31
2019-05-09T10:51:28.153Z,12.32
2019-05-09T10:54:01.643Z,12.33
2019-05-09T10:56:35.043Z,12.48
2019-05-09T10:59:08.455Z,12.41
2019-05-09T11:01:41.869Z,12.44
2019-05-09T11:04:15.268Z,12.44
2019-05-09T11:06:48.681Z,12.49
2019-05-09T11:09:22.281Z,12.53
2019-05-09T11:11:58.711Z,12.32
2019-05-09T11:14:36.858Z,12.03
2019-05-09T11:17:11.586Z,11.77
2019-05-09T11:19:41.098Z,11.69
2019-05-09T11:22:14.471Z,11.59
2019-05-09T11:24:51.150Z,11.52
2019-05-09T11:27:23.147Z,11.51
2019-05-09T11:29:57.846Z,11.41
2019-05-09T11:32:31.537Z,11.41
2019-05-09T11:35:08.954Z,11.17
2019-05-09T11:37:42.717Z,11.16
2019-05-09T11:40:16.362Z,11.00
2019-05-09T11:42:49.755Z,10.92
2019-05-09T11:45:23.231Z,10.83
2019-05-09T11:47:58.242Z,10.87
2019-05-09T11:50:31.933Z,10.89
2019-05-09T11:53:05.409Z,10.87
2019-05-09T11:55:43.114Z,10.90
2019-05-09T11:58:13.944Z,10.87
2019-05-09T12:00:48.257Z,10.82
2019-05-09T12:03:21.834Z,10.85
2019-05-09T12:05:55.285Z,10.88
2019-05-09T12:08:28.750Z,10.87
2019-05-09T12:11:02.169Z,10.81
2019-05-09T12:13:37.817Z,10.75
2019-05-09T12:16:10.726Z,10.81
2019-05-09T12:18:44.112Z,10.75
2019-05-09T12:21:19.020Z,10.69
2019-05-09T12:23:52.908Z,10.73
2019-05-09T12:26:28.842Z,10.70
2019-05-09T12:29:01.600Z,10.72
2019-05-09T12:31:34.983Z,10.77
2019-05-09T12:34:09.323Z,10.76
2019-05-09T12:36:42.804Z,10.64
2019-05-09T12:39:18.732Z,10.74
2019-05-09T12:41:51.334Z,10.74
2019-05-09T12:44:25.261Z,10.91
2019-05-09T12:46:58.866Z,10.99
2019-05-09T12:49:32.279Z,11.21
2019-05-09T12:52:08.030Z,11.38
2019-05-09T12:54:40.861Z,11.70
2019-05-09T12:57:14.298Z,11.77
2019-05-09T12:59:52.486Z,11.92
2019-05-09T13:02:22.836Z,11.92
2019-05-09T13:04:56.405Z,11.98
2019-05-09T13:07:29.961Z,12.00
2019-05-09T13:10:03.840Z,11.90
2019-05-09T13:12:38.816Z,11.93
2019-05-09T13:15:12.564Z,12.08
2019-05-09T13:17:48.069Z,12.10
2019-05-09T13:20:21.657Z,12.19
2019-05-09T13:22:55.048Z,12.13
2019-05-09T13:25:28.995Z,12.09
2019-05-09T13:28:02.448Z,12.15
2019-05-09T13:30:38.004Z,12.19
2019-05-09T13:33:11.159Z,12.28
2019-05-09T13:35:44.618Z,12.32
2019-05-09T13:38:18.097Z,12.37
2019-05-09T13:40:53.433Z,12.29
2019-05-09T13:43:28.107Z,12.16
2019-05-09T13:46:01.660Z,12.05
2019-05-09T13:48:57.074Z,12.08
2019-05-09T13:51:10.309Z,12.08
2019-05-09T13:53:43.702Z,12.10
2019-05-09T13:56:17.875Z,12.15
2019-05-09T13:58:51.400Z,12.14
2019-05-09T14:01:24.892Z,12.24
2019-05-09T14:03:58.303Z,12.48
2019-05-09T14:06:31.692Z,12.56
2019-05-09T14:09:10.363Z,12.75
2019-05-09T14:11:43.637Z,12.86
2019-05-09T14:14:17.815Z,12.93
2019-05-09T14:16:51.639Z,13.04
2019-05-09T14:19:35.945Z,13.15
2019-05-09T14:22:00.195Z,13.15
2019-05-09T14:24:33.591Z,13.17
2019-05-09T14:27:08.274Z,13.22
2019-05-09T14:29:41.785Z,13.17
2019-05-09T14:32:15.241Z,13.09
2019-05-09T14:34:48.657Z,13.03
2019-05-09T14:37:22.090Z,12.98
2019-05-09T14:39:58.860Z,12.98
2019-05-09T14:42:30.666Z,12.91
2019-05-09T14:45:08.289Z,12.82
2019-05-09T14:47:42.471Z,12.78
2019-05-09T14:50:18.047Z,12.96
2019-05-09T14:52:51.260Z,12.98
2019-05-09T14:55:24.742Z,12.96
2019-05-09T14:57:58.221Z,12.88
2019-05-09T15:00:31.639Z,12.91
2019-05-09T15:03:05.066Z,12.87
2019-05-09T15:05:38.512Z,12.91
2019-05-09T15:08:11.955Z,12.96
2019-05-09T15:10:45.443Z,13.07
2019-05-09T15:13:18.912Z,13.17
2019-05-09T15:15:52.368Z,13.11
2019-05-09T15:18:25.775Z,13.05
2019-05-09T15:20:59.161Z,13.01
2019-05-09T15:23:32.635Z,13.07
2019-05-09T15:26:07.717Z,13.15
2019-05-09T15:28:41.161Z,13.32
2019-05-09T15:31:14.540Z,13.44
2019-05-09T15:33:48.585Z,13.35
2019-05-09T15:36:22.262Z,13.52
2019-05-09T15:38:55.671Z,13.70
2019-05-09T15:41:29.148Z,13.83
2019-05-09T15:44:02.581Z,13.64
2019-05-09T15:46:40.667Z,13.64
2019-05-09T15:49:14.170Z,13.62
2019-05-09T15:51:47.878Z,13.61
2019-05-09T15:54:21.357Z,13.54
2019-05-09T15:56:54.800Z,13.62
2019-05-09T15:59:28.327Z,13.60
2019-05-09T16:02:01.816Z,13.50
2019-05-09T16:04:35.206Z,13.50
2019-05-09T16:07:08.758Z,13.52
2019-05-09T16:09:42.193Z,13.66
2019-05-09T16:12:18.307Z,13.74
2019-05-09T16:14:50.870Z,13.91
2019-05-09T16:17:24.269Z,14.03
2019-05-09T16:19:57.829Z,13.94
2019-05-09T16:22:31.284Z,14.15
2019-05-09T16:25:06.541Z,14.10
2019-05-09T16:27:40.073Z,14.82
2019-05-09T16:30:13.614Z,14.42
2019-05-09T16:32:48.041Z,14.41
2019-05-09T16:35:21.749Z,14.27
2019-05-09T16:38:02.784Z,14.24
2019-05-09T16:40:30.325Z,14.20
2019-05-09T16:43:03.701Z,14.11
2019-05-09T16:45:37.880Z,14.17
2019-05-09T16:48:11.662Z,14.05
2019-05-09T16:50:57.775Z,13.95
2019-05-09T16:53:20.962Z,16.73
2019-05-09T16:55:54.383Z,17.18
2019-05-09T16:58:27.764Z,17.18
2019-05-09T17:01:01.270Z,17.30
2019-05-09T17:03:34.758Z,16.64
2019-05-09T17:06:08.287Z,15.40
2019-05-09T17:08:41.667Z,14.65
2019-05-09T17:11:15.146Z,14.43
2019-05-09T17:13:48.570Z,15.07
2019-05-09T17:16:21.969Z,14.45
2019-05-09T17:18:58.010Z,14.43
2019-05-09T17:21:32.228Z,16.02
2019-05-09T17:24:08.255Z,15.52
2019-05-09T17:26:41.805Z,14.79
2019-05-09T17:29:18.719Z,14.28
2019-05-09T17:31:52.201Z,14.17
2019-05-09T17:34:25.704Z,14.06
2019-05-09T17:36:59.125Z,13.91
2019-05-09T17:39:32.616Z,13.80
2019-05-09T17:42:07.648Z,13.61
2019-05-09T17:44:41.092Z,13.61
2019-05-09T17:47:14.519Z,13.47
2019-05-09T17:49:48.315Z,13.44
2019-05-09T17:52:21.835Z,13.39
2019-05-09T17:54:55.225Z,13.32
2019-05-09T17:57:28.667Z,13.25
2019-05-09T18:00:02.043Z,13.19
2019-05-09T18:02:35.537Z,13.19
2019-05-09T18:05:09.074Z,13.19
2019-05-09T18:07:42.497Z,13.16
2019-05-09T18:10:18.274Z,13.18
2019-05-09T18:12:51.595Z,13.14
2019-05-09T18:15:25.138Z,13.11
2019-05-09T18:17:58.756Z,13.07
2019-05-09T18:20:32.252Z,13.04
2019-05-09T18:23:08.201Z,13.05
2019-05-09T18:25:41.239Z,12.98
2019-05-09T18:28:14.862Z,12.94
2019-05-09T18:30:48.306Z,12.91
2019-05-09T18:33:32.398Z,12.84
2019-05-09T18:36:05.950Z,12.84
2019-05-09T18:38:39.407Z,12.84
2019-05-09T18:41:12.831Z,12.84
2019-05-09T18:43:47.934Z,12.77
2019-05-09T18:46:21.751Z,12.74
2019-05-09T18:48:55.300Z,12.67
2019-05-09T18:51:28.921Z,12.60
2019-05-09T18:54:02.347Z,12.53
2019-05-09T18:56:35.831Z,12.50
2019-05-09T18:59:09.331Z,12.53
2019-05-09T19:01:42.926Z,12.50
2019-05-09T19:04:16.341Z,12.49
2019-05-09T19:06:49.824Z,12.40
2019-05-09T19:09:23.308Z,12.28
2019-05-09T19:11:56.713Z,12.22
2019-05-09T19:14:30.234Z,12.22
2019-05-09T19:17:21.256Z,12.19
2019-05-09T19:20:11.447Z,12.18
2019-05-09T19:22:44.843Z,12.19
2019-05-09T19:25:18.320Z,12.17
2019-05-09T19:27:51.694Z,12.20
2019-05-09T19:30:31.242Z,12.21
2019-05-09T19:33:05.019Z,12.24
2019-05-09T19:35:38.461Z,12.18
2019-05-09T19:38:11.860Z,12.18
2019-05-09T19:40:45.372Z,12.14
2019-05-09T19:43:18.826Z,12.08
2019-05-09T19:45:52.295Z,11.99
2019-05-09T19:48:25.770Z,11.86
2019-05-09T19:50:59.254Z,11.79
2019-05-09T19:53:32.686Z,11.77
2019-05-09T19:56:06.245Z,11.73
2019-05-09T19:58:39.674Z,11.71
2019-05-09T20:01:13.396Z,11.68
2019-05-09T20:03:46.838Z,11.68
2019-05-09T20:06:20.333Z,11.66
2019-05-09T20:08:53.980Z,11.63
2019-05-09T20:11:45.238Z,11.58
2019-05-09T20:14:23.165Z,11.55
2019-05-09T20:16:57.771Z,11.52
2019-05-09T20:19:31.249Z,11.47
2019-05-09T20:22:04.965Z,11.38
2019-05-09T20:24:38.566Z,11.34
2019-05-09T20:27:12.338Z,11.37
2019-05-09T20:29:45.776Z,11.43
2019-05-09T20:32:19.263Z,11.41
2019-05-09T20:34:52.683Z,11.32
2019-05-09T20:37:26.297Z,11.32
2019-05-09T20:39:59.894Z,11.24
2019-05-09T20:42:33.622Z,11.19
2019-05-09T20:45:08.066Z,11.14
2019-05-09T20:47:41.738Z,11.14
2019-05-09T20:50:15.467Z,11.19
2019-05-09T20:52:49.066Z,11.18
2019-05-09T20:55:22.681Z,11.20
2019-05-09T20:57:56.309Z,11.29
2019-05-09T21:00:30.330Z,11.25
2019-05-09T21:03:07.560Z,11.20
2019-05-09T21:05:39.274Z,11.13
2019-05-09T21:08:12.909Z,11.15
2019-05-09T21:10:46.497Z,11.09
2019-05-09T21:13:20.120Z,11.08
2019-05-09T21:15:53.743Z,11.01
2019-05-09T21:18:27.494Z,10.98
2019-05-09T21:21:01.168Z,11.04
2019-05-09T21:23:34.782Z,11.04
2019-05-09T21:26:08.430Z,11.03
2019-05-09T21:28:42.059Z,10.97
2019-05-09T21:31:15.745Z,10.98
2019-05-09T21:33:49.410Z,10.97
2019-05-09T21:36:22.839Z,10.99
2019-05-09T21:38:56.229Z,11.08
2019-05-09T21:41:29.645Z,11.13
2019-05-09T21:44:03.100Z,11.16
2019-05-09T21:46:36.528Z,11.22
2019-05-09T21:49:09.934Z,11.25
2019-05-09T21:51:43.364Z,11.32
2019-05-09T21:54:16.746Z,11.33
2019-05-09T21:56:50.163Z,11.33
2019-05-09T21:59:23.552Z,11.30
2019-05-09T22:01:57.190Z,11.30
2019-05-09T22:04:30.592Z,11.29
2019-05-09T22:07:04.087Z,11.25
2019-05-09T22:09:37.514Z,11.18
2019-05-09T22:12:11.181Z,11.12
2019-05-09T22:14:44.658Z,11.10
2019-05-09T22:17:25.589Z,11.11
2019-05-09T22:19:58.988Z,11.07
2019-05-09T22:22:32.401Z,11.02
2019-05-09T22:25:08.760Z,10.99
2019-05-09T22:27:42.171Z,10.97
2019-05-09T22:30:16.027Z,10.96
2019-05-09T22:32:49.484Z,11.02
2019-05-09T22:35:22.877Z,10.98
2019-05-09T22:37:56.305Z,10.99
2019-05-09T22:40:29.718Z,11.01
2019-05-09T22:43:03.170Z,11.06
2019-05-09T22:45:36.582Z,11.03
2019-05-09T22:48:10.074Z,11.02
2019-05-09T22:50:43.497Z,10.98
2019-05-09T22:53:16.912Z,10.95
2019-05-09T22:55:50.309Z,10.98
2019-05-09T22:58:23.735Z,11.02
2019-05-09T23:00:57.134Z,11.02
2019-05-09T23:03:30.560Z,11.03
2019-05-09T23:06:04.109Z,11.01
2019-05-09T23:08:37.519Z,11.05
2019-05-09T23:11:10.925Z,11.07
2019-05-09T23:13:53.051Z,11.08
2019-05-09T23:16:28.230Z,11.02
2019-05-09T23:19:01.699Z,10.99
2019-05-09T23:21:35.194Z,11.00
2019-05-09T23:24:10.528Z,11.03
2019-05-09T23:26:43.938Z,11.01
2019-05-09T23:29:17.342Z,10.98
2019-05-09T23:32:07.085Z,11.01
2019-05-09T23:34:40.509Z,10.98
2019-05-09T23:37:13.918Z,10.91
2019-05-09T23:39:49.017Z,10.89
2019-05-09T23:42:22.481Z,10.84
2019-05-09T23:44:55.896Z,10.82
2019-05-09T23:47:29.293Z,10.86
2019-05-09T23:50:02.719Z,10.81
2019-05-09T23:52:36.111Z,10.74
2019-05-09T23:55:27.406Z,10.67
2019-05-09T23:58:18.534Z,10.69
